Time;durP1;ratioP1;P1;durP2;ratioP2;P2;SDS_P1;SDS_P2;PMS_P1;PMS_P2;Temp;Humidity;BMP_temperature;BMP_pressure;BME280_temperature;BME280_humidity;BME280_pressure;Samples;Min_cycle;Max_cycle;Signal;HPM_P1;HPM_P2
2021/11/12 00:04:11;;;;;;;54.35;28.13;;;;;;;;;;4997558;28;20321;-79
2021/11/12 00:12:25;;;;;;;45.15;27.00;;;;;;;;;;4997236;28;20178;-77
2021/11/12 00:14:54;;;;;;;51.03;28.65;;;;;;;;;;4997189;28;20274;-79
2021/11/12 00:17:22;;;;;;;53.55;28.15;;;;;;;;;;4996878;28;20176;-79
2021/11/12 00:19:49;;;;;;;58.13;28.67;;;;;;;;;;4996570;28;20230;-79
2021/11/12 00:22:15;;;;;;;45.75;28.17;;;;;;;;;;4996844;28;20189;-77
2021/11/12 00:24:41;;;;;;;43.45;26.55;;;;;;;;;;4996883;28;20606;-78
2021/11/12 00:27:08;;;;;;;54.50;29.88;;;;;;;;;;4996887;28;20652;-78
2021/11/12 00:29:46;;;;;;;55.35;28.98;;;;;;;;;;4996179;28;20212;-76
2021/11/12 00:43:18;;;;;;;51.72;28.63;;;;;;;;;;4966395;28;20187;-76
2021/11/12 00:45:54;;;;;;;54.20;29.83;;;;;;;;;;4996533;28;20207;-77
2021/11/12 00:48:23;;;;;;;50.80;30.17;;;;;;;;;;4996561;28;20192;-80
2021/11/12 00:55:43;;;;;;;59.70;30.63;;;;;;;;;;4996479;28;20189;-76
2021/11/12 00:58:10;;;;;;;57.85;29.05;;;;;;;;;;4996197;28;20176;-78
2021/11/12 01:00:37;;;;;;;51.90;27.73;;;;;;;;;;4995811;28;20595;-78
2021/11/12 01:03:03;;;;;;;51.03;26.55;;;;;;;;;;4994872;28;20545;-76
2021/11/12 01:05:30;;;;;;;50.55;28.20;;;;;;;;;;4996090;28;20184;-78
2021/11/12 01:07:57;;;;;;;59.63;28.83;;;;;;;;;;4995819;28;20198;-79
2021/11/12 01:10:23;;;;;;;48.05;25.23;;;;;;;;;;4995543;28;20284;-77
2021/11/12 01:12:49;;;;;;;45.05;26.50;;;;;;;;;;4996038;28;20187;-77
2021/11/12 01:15:16;;;;;;;43.58;24.85;;;;;;;;;;4994699;28;20628;-80
2021/11/12 01:17:43;;;;;;;43.58;27.38;;;;;;;;;;4994819;28;20565;-77
2021/11/12 01:20:10;;;;;;;45.30;24.35;;;;;;;;;;4995327;28;20249;-77
2021/11/12 01:22:36;;;;;;;49.80;25.33;;;;;;;;;;4995777;28;20188;-76
2021/11/12 01:25:04;;;;;;;44.40;24.23;;;;;;;;;;4995887;28;20228;-79
2021/11/12 01:27:31;;;;;;;54.80;24.85;;;;;;;;;;4995689;28;20201;-75
2021/11/12 01:29:57;;;;;;;52.72;25.40;;;;;;;;;;4993982;28;20198;-80
2021/11/12 01:32:23;;;;;;;45.03;25.80;;;;;;;;;;4995829;28;20230;-76
2021/11/12 01:34:50;;;;;;;44.78;26.02;;;;;;;;;;4995796;28;20205;-76
2021/11/12 01:37:19;;;;;;;53.13;26.48;;;;;;;;;;4995545;28;20585;-78
2021/11/12 01:39:50;;;;;;;54.17;27.27;;;;;;;;;;4993944;28;20198;-76
2021/11/12 01:42:18;;;;;;;43.10;24.20;;;;;;;;;;4995380;28;20189;-77
2021/11/12 01:44:48;;;;;;;48.20;26.08;;;;;;;;;;4995534;28;20261;-79
2021/11/12 01:49:51;;;;;;;45.55;22.85;;;;;;;;;;4993899;28;20619;-78
2021/11/12 01:52:36;;;;;;;44.10;24.23;;;;;;;;;;4994047;28;20538;-79
2021/11/12 01:55:06;;;;;;;61.35;24.45;;;;;;;;;;4995355;28;20650;-79
2021/11/12 01:57:50;;;;;;;50.30;25.27;;;;;;;;;;4995352;28;20180;-80
2021/11/12 02:00:18;;;;;;;57.75;26.55;;;;;;;;;;4993360;28;20278;-79
2021/11/12 02:02:44;;;;;;;53.60;26.58;;;;;;;;;;4995039;28;20268;-78
2021/11/12 02:05:11;;;;;;;59.83;27.70;;;;;;;;;;4993786;28;20190;-80
2021/11/12 02:07:38;;;;;;;52.22;24.92;;;;;;;;;;4994878;28;20174;-77
2021/11/12 02:10:06;;;;;;;49.60;26.17;;;;;;;;;;4993168;28;20282;-78
2021/11/12 02:12:41;;;;;;;47.40;25.92;;;;;;;;;;4994761;28;20512;-80
2021/11/12 02:15:07;;;;;;;54.25;27.80;;;;;;;;;;4994985;28;20250;-79
2021/11/12 02:17:36;;;;;;;47.65;26.33;;;;;;;;;;4994689;28;20181;-79
2021/11/12 02:20:25;;;;;;;47.40;26.02;;;;;;;;;;4994406;28;20573;-81
2021/11/12 02:22:56;;;;;;;43.60;25.45;;;;;;;;;;4994790;28;20258;-80
2021/11/12 02:25:34;;;;;;;53.05;27.08;;;;;;;;;;4994899;28;20225;-80
2021/11/12 02:28:06;;;;;;;47.60;24.80;;;;;;;;;;4993659;28;20226;-78
2021/11/12 02:30:33;;;;;;;51.60;24.95;;;;;;;;;;4993052;28;20226;-80
2021/11/12 02:33:02;;;;;;;50.88;25.75;;;;;;;;;;4994691;28;20172;-80
2021/11/12 02:35:29;;;;;;;57.35;29.65;;;;;;;;;;4994473;28;20171;-80
2021/11/12 02:37:55;;;;;;;44.30;26.15;;;;;;;;;;4993185;28;20182;-78
2021/11/12 02:40:21;;;;;;;48.60;24.52;;;;;;;;;;4993894;28;20201;-81
2021/11/12 02:42:47;;;;;;;47.58;25.75;;;;;;;;;;4994315;28;20178;-80
2021/11/12 02:45:14;;;;;;;46.67;25.20;;;;;;;;;;4994520;28;20193;-78
2021/11/12 02:47:40;;;;;;;49.13;25.55;;;;;;;;;;4994295;28;20196;-79
2021/11/12 02:50:06;;;;;;;48.85;27.77;;;;;;;;;;4993952;28;20297;-78
2021/11/12 02:52:32;;;;;;;44.35;24.75;;;;;;;;;;4994082;28;20181;-79
2021/11/12 02:54:58;;;;;;;51.85;24.50;;;;;;;;;;4994090;28;20265;-80
2021/11/12 02:57:29;;;;;;;52.20;26.35;;;;;;;;;;4994230;28;20179;-79
2021/11/12 02:59:57;;;;;;;46.53;25.80;;;;;;;;;;4993767;28;20198;-77
2021/11/12 03:02:23;;;;;;;43.20;22.63;;;;;;;;;;4994070;28;20178;-80
2021/11/12 03:04:50;;;;;;;44.47;25.73;;;;;;;;;;4993834;28;20266;-78
2021/11/12 03:07:16;;;;;;;46.40;25.38;;;;;;;;;;4994010;28;20180;-79
2021/11/12 03:09:42;;;;;;;45.20;26.00;;;;;;;;;;4993452;28;20210;-80
2021/11/12 03:12:08;;;;;;;48.35;25.08;;;;;;;;;;4993854;28;20176;-78
2021/11/12 03:14:35;;;;;;;58.05;26.00;;;;;;;;;;4993385;28;20180;-78
2021/11/12 03:17:02;;;;;;;50.55;28.38;;;;;;;;;;4992430;28;20643;-79
2021/11/12 03:19:29;;;;;;;51.22;25.55;;;;;;;;;;4993452;28;20647;-78
2021/11/12 03:22:03;;;;;;;48.13;26.58;;;;;;;;;;4993746;28;20202;-79
2021/11/12 03:24:36;;;;;;;38.30;21.13;;;;;;;;;;4993932;28;20533;-78
2021/11/12 03:27:13;;;;;;;38.45;20.85;;;;;;;;;;4992443;28;20263;-78
2021/11/12 03:59:55;;;;;;;42.33;22.05;;;;;;;;;;4993152;28;20214;-77
2021/11/12 04:18:26;;;;;;;48.38;22.23;;;;;;;;;;4993322;28;20596;-78
2021/11/12 05:55:55;;;;;;;47.30;22.67;;;;;;;;;;4995573;28;20313;-81
2021/11/12 05:58:21;;;;;;;48.35;23.75;;;;;;;;;;4995232;28;20182;-78
2021/11/12 06:00:47;;;;;;;55.00;22.85;;;;;;;;;;4994781;28;20202;-78
2021/11/12 06:03:13;;;;;;;50.65;23.65;;;;;;;;;;4995059;28;20188;-78
2021/11/12 06:05:39;;;;;;;47.83;20.48;;;;;;;;;;4995105;28;20593;-78
2021/11/12 06:08:05;;;;;;;66.82;24.25;;;;;;;;;;4994947;28;20221;-80
2021/11/12 06:10:31;;;;;;;55.00;22.23;;;;;;;;;;4993385;28;20195;-80
2021/11/12 06:12:57;;;;;;;63.22;26.80;;;;;;;;;;4993678;28;20430;-80
2021/11/12 06:15:24;;;;;;;65.18;27.73;;;;;;;;;;4994903;28;20171;-78
2021/11/12 06:17:50;;;;;;;62.65;29.65;;;;;;;;;;4995003;28;20587;-80
2021/11/12 06:20:16;;;;;;;60.83;27.20;;;;;;;;;;4994059;28;20215;-78
2021/11/12 06:22:42;;;;;;;63.72;28.75;;;;;;;;;;4994638;28;20180;-77
2021/11/12 06:25:08;;;;;;;57.00;28.52;;;;;;;;;;4994689;28;20187;-78
2021/11/12 06:27:35;;;;;;;55.50;28.50;;;;;;;;;;4994677;28;20241;-81
2021/11/12 06:30:01;;;;;;;62.03;29.75;;;;;;;;;;4994412;28;20245;-79
2021/11/12 06:32:27;;;;;;;59.28;30.30;;;;;;;;;;4994760;28;20579;-79
2021/11/12 06:34:53;;;;;;;57.65;27.45;;;;;;;;;;4993690;28;20281;-79
2021/11/12 06:37:19;;;;;;;65.37;28.70;;;;;;;;;;4994711;28;20220;-78
2021/11/12 06:39:45;;;;;;;57.13;28.92;;;;;;;;;;4994153;28;20441;-78
2021/11/12 06:50:13;;;;;;;53.25;26.45;;;;;;;;;;4993501;28;20230;-80
2021/11/12 06:52:40;;;;;;;57.72;29.45;;;;;;;;;;4992971;28;20231;-80
2021/11/12 06:55:09;;;;;;;54.53;26.85;;;;;;;;;;4994570;28;20199;-79
2021/11/12 06:57:35;;;;;;;64.47;30.17;;;;;;;;;;4993309;28;20272;-80
2021/11/12 07:00:01;;;;;;;58.03;29.35;;;;;;;;;;4993859;28;20567;-80
2021/11/12 07:02:27;;;;;;;58.45;27.42;;;;;;;;;;4992880;28;20635;-78
2021/11/12 07:04:53;;;;;;;65.55;29.88;;;;;;;;;;4993949;28;20187;-80
2021/11/12 07:07:20;;;;;;;60.03;30.30;;;;;;;;;;4994081;28;20223;-80
2021/11/12 07:09:50;;;;;;;53.53;28.80;;;;;;;;;;4993651;28;20218;-79
2021/11/12 07:12:17;;;;;;;57.08;29.23;;;;;;;;;;4994063;28;20229;-78
2021/11/12 07:14:44;;;;;;;57.55;29.35;;;;;;;;;;4994061;28;20234;-80
2021/11/12 07:17:10;;;;;;;54.22;26.73;;;;;;;;;;4992674;28;20206;-79
2021/11/12 07:19:36;;;;;;;51.90;25.45;;;;;;;;;;4992305;28;20234;-81
2021/11/12 07:22:02;;;;;;;49.40;26.95;;;;;;;;;;4993942;28;20555;-79
2021/11/12 07:24:29;;;;;;;48.35;26.58;;;;;;;;;;4993868;28;20182;-80
2021/11/12 07:26:55;;;;;;;54.95;25.30;;;;;;;;;;4992471;28;20179;-78
2021/11/12 07:29:23;;;;;;;46.45;25.50;;;;;;;;;;4993358;28;20296;-78
2021/11/12 07:31:50;;;;;;;36.53;23.00;;;;;;;;;;4993736;28;20182;-81
2021/11/12 07:34:16;;;;;;;38.20;23.40;;;;;;;;;;4992710;28;20198;-78
2021/11/12 07:36:52;;;;;;;33.78;22.23;;;;;;;;;;4993784;28;20539;-79
2021/11/12 07:47:14;;;;;;;42.55;23.75;;;;;;;;;;4993787;28;20576;-78
2021/11/12 07:49:42;;;;;;;35.92;20.80;;;;;;;;;;4993321;28;20766;-77
2021/11/12 07:52:09;;;;;;;33.75;21.77;;;;;;;;;;4993700;28;20174;-78
2021/11/12 07:54:36;;;;;;;43.70;24.38;;;;;;;;;;4992448;28;20211;-76
2021/11/12 07:57:02;;;;;;;39.97;24.17;;;;;;;;;;4993522;28;20201;-77
2021/11/12 07:59:28;;;;;;;39.60;24.00;;;;;;;;;;4992118;28;20275;-77
2021/11/12 08:01:55;;;;;;;40.45;25.88;;;;;;;;;;4997374;28;20183;-78
2021/11/12 08:04:21;;;;;;;39.03;22.50;;;;;;;;;;4997275;28;20179;-78
2021/11/12 08:06:51;;;;;;;38.95;23.58;;;;;;;;;;4997246;28;20270;-77
2021/11/12 08:09:19;;;;;;;42.28;23.90;;;;;;;;;;4995630;28;20211;-77
2021/11/12 08:11:53;;;;;;;38.25;24.85;;;;;;;;;;4996021;28;20542;-79
2021/11/12 08:17:13;;;;;;;38.08;23.00;;;;;;;;;;4995977;28;20175;-77
2021/11/12 08:19:44;;;;;;;40.40;23.45;;;;;;;;;;4996620;28;20207;-80
2021/11/12 08:22:13;;;;;;;39.90;24.55;;;;;;;;;;4997130;28;20183;-79
2021/11/12 08:42:55;;;;;;;40.08;23.08;;;;;;;;;;4996231;28;20203;-77
2021/11/12 08:47:52;;;;;;;46.95;25.85;;;;;;;;;;4996612;28;20545;-79
2021/11/12 08:50:20;;;;;;;50.00;27.95;;;;;;;;;;4996232;28;20274;-78
2021/11/12 08:52:48;;;;;;;52.15;30.55;;;;;;;;;;4996513;28;20172;-78
2021/11/12 08:55:14;;;;;;;51.67;28.48;;;;;;;;;;4996522;28;20202;-77
2021/11/12 08:57:41;;;;;;;46.42;27.38;;;;;;;;;;4996408;28;20186;-76
2021/11/12 09:00:07;;;;;;;46.08;27.05;;;;;;;;;;4996173;28;20198;-78
2021/11/12 09:02:33;;;;;;;41.55;26.23;;;;;;;;;;4996534;28;20170;-79
2021/11/12 09:04:59;;;;;;;42.55;25.50;;;;;;;;;;4996395;28;20192;-78
2021/11/12 09:07:26;;;;;;;36.17;23.27;;;;;;;;;;4996039;28;20182;-78
2021/11/12 09:09:56;;;;;;;32.72;22.55;;;;;;;;;;4995759;28;20203;-77
2021/11/12 09:12:24;;;;;;;42.70;24.60;;;;;;;;;;4995545;28;20199;-78
2021/11/12 09:14:51;;;;;;;43.08;25.55;;;;;;;;;;4996215;28;20168;-78
2021/11/12 09:17:18;;;;;;;35.38;24.02;;;;;;;;;;4995779;28;20538;-80
2021/11/12 09:19:46;;;;;;;35.45;22.38;;;;;;;;;;4995367;28;20621;-77
2021/11/12 09:22:16;;;;;;;37.70;24.83;;;;;;;;;;4996113;28;20228;-77
2021/11/12 09:24:43;;;;;;;35.90;24.42;;;;;;;;;;4995810;28;20182;-78
2021/11/12 09:27:09;;;;;;;43.80;27.25;;;;;;;;;;4995906;28;20176;-78
2021/11/12 09:29:35;;;;;;;41.15;26.45;;;;;;;;;;4993974;28;20200;-78
2021/11/12 09:32:01;;;;;;;42.67;28.50;;;;;;;;;;4995932;28;20286;-77
2021/11/12 09:34:34;;;;;;;42.17;26.10;;;;;;;;;;4994556;28;20665;-78
2021/11/12 09:37:00;;;;;;;43.42;26.73;;;;;;;;;;4994808;28;20612;-78
2021/11/12 09:39:26;;;;;;;45.63;27.50;;;;;;;;;;4995283;28;20643;-79
2021/11/12 09:41:52;;;;;;;45.65;26.95;;;;;;;;;;4995441;28;20197;-77
2021/11/12 09:44:18;;;;;;;43.58;27.88;;;;;;;;;;4995555;28;20187;-78
2021/11/12 09:46:44;;;;;;;39.15;25.20;;;;;;;;;;4994246;28;20274;-78
2021/11/12 09:49:10;;;;;;;40.17;26.15;;;;;;;;;;4995291;28;20207;-77
2021/11/12 09:51:37;;;;;;;43.90;27.03;;;;;;;;;;4995293;28;20194;-77
2021/11/12 09:54:03;;;;;;;42.95;25.52;;;;;;;;;;4995257;28;20457;-79
2021/11/12 09:56:29;;;;;;;42.83;26.83;;;;;;;;;;4995247;28;20172;-79
2021/11/12 09:58:55;;;;;;;39.67;25.10;;;;;;;;;;4995307;28;20218;-79
2021/11/12 10:01:26;;;;;;;42.45;24.90;;;;;;;;;;4993687;28;20258;-78
2021/11/12 10:03:53;;;;;;;35.20;24.05;;;;;;;;;;4995347;28;20192;-77
2021/11/12 10:06:23;;;;;;;39.00;24.30;;;;;;;;;;4995029;28;20183;-79
2021/11/12 10:08:49;;;;;;;34.00;22.15;;;;;;;;;;4994900;28;20191;-78
2021/11/12 10:11:21;;;;;;;47.70;23.38;;;;;;;;;;4994558;28;20271;-80
2021/11/12 10:13:48;;;;;;;37.97;24.38;;;;;;;;;;4994797;28;20262;-78
2021/11/12 10:19:02;;;;;;;34.22;21.88;;;;;;;;;;4994717;28;20175;-78
2021/11/12 10:21:30;;;;;;;33.92;22.48;;;;;;;;;;4994199;28;20242;-77
2021/11/12 10:24:01;;;;;;;29.17;20.15;;;;;;;;;;4993594;28;20195;-77
2021/11/12 10:26:28;;;;;;;28.60;19.58;;;;;;;;;;4993362;28;20206;-80
2021/11/12 10:28:59;;;;;;;25.30;17.40;;;;;;;;;;4994525;28;20221;-79
2021/11/12 10:31:26;;;;;;;24.67;18.48;;;;;;;;;;4994322;28;20226;-80
2021/11/12 10:33:53;;;;;;;22.77;17.27;;;;;;;;;;4994595;28;20175;-81
2021/11/12 10:36:20;;;;;;;25.33;18.58;;;;;;;;;;4994432;28;20164;-79
2021/11/12 10:38:48;;;;;;;25.00;17.27;;;;;;;;;;4994614;28;20329;-79
2021/11/12 10:41:16;;;;;;;26.25;18.48;;;;;;;;;;4994152;28;20431;-77
2021/11/12 10:43:42;;;;;;;24.98;17.67;;;;;;;;;;4994415;28;20179;-78
2021/11/12 10:46:08;;;;;;;22.60;17.20;;;;;;;;;;4994432;28;20534;-77
2021/11/12 10:48:34;;;;;;;24.97;17.23;;;;;;;;;;4994119;28;20465;-80
2021/11/12 10:51:17;;;;;;;25.70;18.20;;;;;;;;;;4993902;28;20509;-80
2021/11/12 10:54:01;;;;;;;25.87;18.00;;;;;;;;;;4994317;28;20410;-78
2021/11/12 10:56:47;;;;;;;21.87;15.80;;;;;;;;;;4992897;28;20782;-80
2021/11/12 10:59:13;;;;;;;26.43;18.20;;;;;;;;;;4993775;28;20426;-78
2021/11/12 11:01:40;;;;;;;20.17;13.73;;;;;;;;;;4994082;28;20438;-80
2021/11/12 11:04:23;;;;;;;23.03;15.33;;;;;;;;;;4994291;28;20755;-78
2021/11/12 11:06:49;;;;;;;23.67;16.37;;;;;;;;;;4994213;28;20775;-77
2021/11/12 11:09:16;;;;;;;36.77;24.60;;;;;;;;;;4993799;28;20537;-79
2021/11/12 11:11:43;;;;;;;29.07;19.20;;;;;;;;;;4993935;28;20434;-78
2021/11/12 11:14:29;;;;;;;20.67;13.67;;;;;;;;;;4993949;28;20403;-77
2021/11/12 11:16:56;;;;;;;51.03;30.27;;;;;;;;;;4993891;28;20494;-79
2021/11/12 11:19:33;;;;;;;40.10;23.50;;;;;;;;;;4993530;28;20453;-77
2021/11/12 11:22:04;;;;;;;30.87;20.23;;;;;;;;;;4993852;28;20432;-78
2021/11/12 11:24:32;;;;;;;41.43;24.97;;;;;;;;;;4993578;28;20407;-79
2021/11/12 11:26:58;;;;;;;23.47;14.80;;;;;;;;;;4992556;28;20414;-78
2021/11/12 11:29:24;;;;;;;22.23;15.63;;;;;;;;;;4993303;28;20462;-79
2021/11/12 11:31:52;;;;;;;19.53;15.73;;;;;;;;;;4992450;28;20927;-78
2021/11/12 11:34:18;;;;;;;17.70;12.07;;;;;;;;;;4993718;28;20501;-77
2021/11/12 11:36:45;;;;;;;16.80;13.23;;;;;;;;;;4997524;28;20446;-79
2021/11/12 11:39:12;;;;;;;16.20;13.40;;;;;;;;;;4997724;28;20414;-78
2021/11/12 11:41:39;;;;;;;14.63;12.20;;;;;;;;;;4997815;28;20427;-78
2021/11/12 11:44:05;;;;;;;16.37;12.63;;;;;;;;;;4997943;28;20498;-80
2021/11/12 11:46:34;;;;;;;18.70;12.80;;;;;;;;;;4997716;28;20829;-80
2021/11/12 11:49:02;;;;;;;14.00;11.37;;;;;;;;;;4997514;28;20857;-79
2021/11/12 11:51:32;;;;;;;15.97;11.37;;;;;;;;;;4997127;28;20451;-78
2021/11/12 11:54:06;;;;;;;19.47;13.97;;;;;;;;;;4997629;28;20792;-78
2021/11/12 11:56:55;;;;;;;16.97;13.43;;;;;;;;;;4997638;28;20374;-80
2021/11/12 11:59:23;;;;;;;17.27;12.13;;;;;;;;;;4987433;28;20473;-80
2021/11/12 12:01:53;;;;;;;17.20;11.93;;;;;;;;;;4997438;28;20417;-80
2021/11/12 12:04:19;;;;;;;15.63;11.13;;;;;;;;;;4996199;28;20446;-79
2021/11/12 12:07:01;;;;;;;15.73;12.83;;;;;;;;;;4997042;28;20426;-81
2021/11/12 12:09:39;;;;;;;12.70;11.37;;;;;;;;;;4996827;28;20477;-80
2021/11/12 12:12:05;;;;;;;15.90;11.20;;;;;;;;;;4997204;28;20545;-80
2021/11/12 12:14:32;;;;;;;17.67;12.03;;;;;;;;;;4997177;28;20747;-80
2021/11/12 12:17:10;;;;;;;15.20;11.77;;;;;;;;;;4996861;28;20411;-81
2021/11/12 12:19:41;;;;;;;20.07;11.60;;;;;;;;;;4996738;28;20407;-80
2021/11/12 12:30:48;;;;;;;15.50;11.30;;;;;;;;;;4996950;28;20418;-79
2021/11/12 13:25:37;;;;;;;18.37;14.30;;;;;;;;;;4995637;28;20402;-79
2021/11/12 13:28:14;;;;;;;18.37;12.03;;;;;;;;;;4995605;28;20817;-77
2021/11/12 13:30:42;;;;;;;16.30;12.17;;;;;;;;;;4995236;28;20416;-79
2021/11/12 13:33:24;;;;;;;17.43;11.37;;;;;;;;;;4995824;28;20407;-82
2021/11/12 13:35:50;;;;;;;16.30;12.53;;;;;;;;;;4995500;28;20396;-82
2021/11/12 13:38:16;;;;;;;14.70;11.43;;;;;;;;;;4995750;28;20497;-80
2021/11/12 13:40:45;;;;;;;14.63;11.40;;;;;;;;;;4995277;28;20493;-81
2021/11/12 13:43:21;;;;;;;13.97;11.53;;;;;;;;;;4995824;28;20415;-78
2021/11/12 13:45:54;;;;;;;17.20;12.73;;;;;;;;;;4994270;28;20529;-81
2021/11/12 13:48:20;;;;;;;18.77;12.90;;;;;;;;;;4995415;28;20574;-81
2021/11/12 13:50:55;;;;;;;16.33;12.87;;;;;;;;;;4995041;28;21071;-81
2021/11/12 13:53:24;;;;;;;18.37;15.07;;;;;;;;;;4994071;28;20418;-79
2021/11/12 13:55:50;;;;;;;17.90;14.90;;;;;;;;;;4993950;28;20926;-80
2021/11/12 13:58:21;;;;;;;17.63;12.67;;;;;;;;;;4995345;28;20397;-82
2021/11/12 14:00:48;;;;;;;16.90;12.53;;;;;;;;;;4995065;28;20444;-78
2021/11/12 14:03:18;;;;;;;17.63;12.57;;;;;;;;;;4995324;28;20411;-80
2021/11/12 14:05:53;;;;;;;16.30;12.40;;;;;;;;;;4995482;28;20915;-81
2021/11/12 14:08:20;;;;;;;16.37;13.03;;;;;;;;;;4995179;28;20465;-80
2021/11/12 14:10:47;;;;;;;16.83;12.63;;;;;;;;;;4993521;28;20427;-80
2021/11/12 14:13:17;;;;;;;19.43;15.40;;;;;;;;;;4995089;28;20406;-80
2021/11/12 14:16:50;;;;;;;19.07;14.50;;;;;;;;;;4995056;28;20418;-77
2021/11/12 14:21:40;;;;;;;20.93;13.60;;;;;;;;;;4994572;28;20446;-79
2021/11/12 14:24:23;;;;;;;19.80;13.50;;;;;;;;;;4993473;28;20433;-81
2021/11/12 14:27:37;;;;;;;15.97;12.23;;;;;;;;;;4994907;28;20440;-81
2021/11/12 14:41:12;;;;;;;20.83;13.93;;;;;;;;;;4994163;28;20521;-78
2021/11/12 14:48:34;;;;;;;20.23;13.57;;;;;;;;;;4994143;28;20422;-81
2021/11/12 14:53:38;;;;;;;20.43;12.50;;;;;;;;;;4994559;28;20449;-80
2021/11/12 14:56:26;;;;;;;18.30;13.83;;;;;;;;;;4994300;28;20411;-80
2021/11/12 14:59:14;;;;;;;18.27;13.60;;;;;;;;;;4994398;28;20421;-79
2021/11/12 15:01:40;;;;;;;19.57;13.73;;;;;;;;;;4994345;28;20429;-80
2021/11/12 15:04:06;;;;;;;19.93;13.67;;;;;;;;;;4994650;28;20833;-80
2021/11/12 15:06:34;;;;;;;19.90;13.40;;;;;;;;;;4994150;28;20418;-81
2021/11/12 15:09:14;;;;;;;22.92;14.25;;;;;;;;;;4994087;28;20863;-80
2021/11/12 15:11:41;;;;;;;28.47;15.90;;;;;;;;;;4993977;28;20891;-79
2021/11/12 15:14:09;;;;;;;24.37;15.53;;;;;;;;;;4993029;28;20411;-80
2021/11/12 15:16:37;;;;;;;28.02;13.98;;;;;;;;;;4992814;28;20410;-80
2021/11/12 15:19:04;;;;;;;19.73;13.80;;;;;;;;;;4994372;28;20175;-79
2021/11/12 15:21:44;;;;;;;18.98;14.00;;;;;;;;;;4993813;28;20208;-78
2021/11/12 15:24:41;;;;;;;17.83;12.73;;;;;;;;;;4993651;28;20182;-78
2021/11/12 15:27:18;;;;;;;17.25;12.07;;;;;;;;;;4993892;28;20172;-79
2021/11/12 15:32:38;;;;;;;20.65;13.23;;;;;;;;;;4993717;28;20175;-77
2021/11/12 15:35:08;;;;;;;20.65;13.35;;;;;;;;;;4993812;28;20178;-80
2021/11/12 15:40:16;;;;;;;18.90;12.98;;;;;;;;;;4993360;28;20702;-76
2021/11/12 15:48:13;;;;;;;18.63;13.75;;;;;;;;;;4993682;28;20274;-76
2021/11/12 15:53:22;;;;;;;20.67;13.00;;;;;;;;;;4993587;28;20187;-79
2021/11/12 15:56:19;;;;;;;18.20;11.88;;;;;;;;;;4992437;28;20551;-79
2021/11/12 15:58:54;;;;;;;20.70;12.82;;;;;;;;;;4993277;28;20179;-76
2021/11/12 16:04:17;;;;;;;15.25;12.63;;;;;;;;;;4993531;28;20183;-80
2021/11/12 16:27:03;;;;;;;17.00;12.83;;;;;;;;;;4997064;28;20222;-78
2021/11/12 16:31:59;;;;;;;22.77;13.85;;;;;;;;;;4996878;28;20265;-80
2021/11/12 16:34:26;;;;;;;19.98;13.45;;;;;;;;;;4996802;28;20187;-82
2021/11/12 16:36:57;;;;;;;19.48;13.73;;;;;;;;;;4995325;28;20187;-82
2021/11/12 16:40:12;;;;;;;21.52;13.77;;;;;;;;;;4995103;28;20198;-78
2021/11/12 16:42:30;;;;;;;19.70;12.95;;;;;;;;;;4988546;28;20195;-79
2021/11/12 16:45:06;;;;;;;22.50;13.95;;;;;;;;;;4996534;28;20199;-80
2021/11/12 16:48:26;;;;;;;24.98;14.18;;;;;;;;;;4996731;28;20515;-82
2021/11/12 17:00:50;;;;;;;19.75;14.48;;;;;;;;;;4996395;28;20211;-81
2021/11/12 17:16:37;;;;;;;22.70;15.13;;;;;;;;;;4996116;28;20293;-80
2021/11/12 17:46:46;;;;;;;22.52;15.23;;;;;;;;;;4995914;28;20190;-79
2021/11/12 18:05:27;;;;;;;26.20;15.02;;;;;;;;;;4942084;28;20204;-80
2021/11/12 18:14:28;;;;;;;25.05;13.73;;;;;;;;;;4995194;28;20234;-81
2021/11/12 18:20:14;;;;;;;33.47;15.80;;;;;;;;;;4994732;28;20259;-79
2021/11/12 21:45:38;;;;;;;30.40;19.20;;;;;;;;;;4987799;28;20211;-82
2021/11/12 21:48:06;;;;;;;24.17;16.33;;;;;;;;;;4986559;28;20200;-80
2021/11/12 21:50:33;;;;;;;25.48;14.38;;;;;;;;;;4984013;28;20207;-82
2021/11/12 21:52:59;;;;;;;20.42;15.98;;;;;;;;;;4997718;28;20294;-82
2021/11/12 21:55:25;;;;;;;24.75;14.70;;;;;;;;;;4991271;28;20259;-79
2021/11/12 21:57:51;;;;;;;20.52;13.65;;;;;;;;;;4995198;28;20273;-80
2021/11/12 22:00:18;;;;;;;20.57;15.13;;;;;;;;;;4990405;28;20306;-82
2021/11/12 22:02:44;;;;;;;54.88;32.53;;;;;;;;;;4989058;28;20424;-80
2021/11/12 22:05:10;;;;;;;33.67;27.40;;;;;;;;;;4990878;28;20271;-81
2021/11/12 22:07:37;;;;;;;21.45;15.63;;;;;;;;;;4988268;28;20189;-79
2021/11/12 22:10:04;;;;;;;24.27;14.23;;;;;;;;;;4991123;28;20218;-80
2021/11/12 22:12:30;;;;;;;51.63;35.58;;;;;;;;;;4986899;28;20651;-82
2021/11/12 22:14:56;;;;;;;27.88;18.88;;;;;;;;;;4998142;28;20222;-80
2021/11/12 22:17:22;;;;;;;49.85;34.67;;;;;;;;;;4991098;28;20273;-80
2021/11/12 22:19:48;;;;;;;40.38;28.50;;;;;;;;;;4987939;28;20211;-81
2021/11/12 22:22:14;;;;;;;37.55;23.85;;;;;;;;;;4985960;28;20206;-79
2021/11/12 22:24:40;;;;;;;29.03;20.23;;;;;;;;;;4993572;28;20223;-79
2021/11/12 22:27:07;;;;;;;24.30;17.13;;;;;;;;;;4991298;28;20492;-82
2021/11/12 22:29:33;;;;;;;27.90;21.05;;;;;;;;;;4990184;28;20220;-81
2021/11/12 22:32:00;;;;;;;63.17;38.55;;;;;;;;;;4985817;28;20183;-81
2021/11/12 22:34:26;;;;;;;71.65;42.70;;;;;;;;;;4990452;28;20203;-81
2021/11/12 22:36:52;;;;;;;44.15;26.80;;;;;;;;;;4987536;28;20188;-79
2021/11/12 22:39:19;;;;;;;47.55;28.92;;;;;;;;;;4992966;28;20194;-79
2021/11/12 22:41:48;;;;;;;52.25;33.80;;;;;;;;;;4994736;28;20195;-79
2021/11/12 22:44:17;;;;;;;66.43;43.25;;;;;;;;;;4985258;28;20201;-78
2021/11/12 22:46:43;;;;;;;60.33;37.92;;;;;;;;;;4986335;28;20203;-80
2021/11/12 22:49:09;;;;;;;42.10;24.48;;;;;;;;;;4992815;28;20215;-79
2021/11/12 22:51:36;;;;;;;45.10;26.05;;;;;;;;;;4996619;28;21008;-79
2021/11/12 22:54:02;;;;;;;40.28;23.20;;;;;;;;;;4987615;28;20199;-78
2021/11/12 22:56:28;;;;;;;30.05;19.23;;;;;;;;;;4993089;28;20550;-80
2021/11/12 22:58:55;;;;;;;31.52;19.75;;;;;;;;;;4991877;28;20179;-80
2021/11/12 23:01:23;;;;;;;40.60;23.00;;;;;;;;;;4988111;28;20204;-79
2021/11/12 23:03:49;;;;;;;40.05;22.88;;;;;;;;;;4990174;28;20644;-77
2021/11/12 23:06:15;;;;;;;30.88;19.00;;;;;;;;;;4989874;28;20186;-79
2021/11/12 23:08:41;;;;;;;31.70;19.20;;;;;;;;;;4984960;28;20215;-78
2021/11/12 23:11:07;;;;;;;49.75;24.98;;;;;;;;;;4993355;28;20208;-80
2021/11/12 23:13:34;;;;;;;56.88;27.38;;;;;;;;;;4984018;28;20175;-79
2021/11/12 23:16:03;;;;;;;35.65;20.33;;;;;;;;;;4992110;28;20238;-79
2021/11/12 23:18:29;;;;;;;39.60;19.95;;;;;;;;;;4993865;28;20179;-79
2021/11/12 23:20:56;;;;;;;29.98;18.73;;;;;;;;;;4993283;28;20222;-79
2021/11/12 23:23:22;;;;;;;25.90;16.05;;;;;;;;;;4994093;28;20214;-79
2021/11/12 23:25:48;;;;;;;34.38;19.05;;;;;;;;;;4993748;28;20599;-80
2021/11/12 23:28:14;;;;;;;28.25;15.68;;;;;;;;;;4993845;28;20514;-79
2021/11/12 23:30:41;;;;;;;33.15;19.13;;;;;;;;;;4992922;28;20195;-79
2021/11/12 23:33:07;;;;;;;26.27;15.65;;;;;;;;;;4993901;28;20222;-79
2021/11/12 23:35:33;;;;;;;26.00;15.10;;;;;;;;;;4993695;28;20171;-79
2021/11/12 23:37:59;;;;;;;32.58;17.42;;;;;;;;;;4993827;28;20682;-78
2021/11/12 23:40:25;;;;;;;36.53;19.27;;;;;;;;;;4993364;28;20347;-79
2021/11/12 23:42:51;;;;;;;24.65;14.80;;;;;;;;;;4993768;28;20195;-79
2021/11/12 23:45:19;;;;;;;25.10;16.13;;;;;;;;;;4993804;28;20184;-80
2021/11/12 23:47:45;;;;;;;24.10;13.45;;;;;;;;;;4993729;28;20252;-79
2021/11/12 23:50:11;;;;;;;24.02;14.38;;;;;;;;;;4993286;28;20264;-79
2021/11/12 23:52:37;;;;;;;19.42;12.48;;;;;;;;;;4993599;28;20516;-78
2021/11/12 23:55:05;;;;;;;21.02;13.60;;;;;;;;;;4993808;28;20273;-80
2021/11/12 23:57:31;;;;;;;18.65;13.52;;;;;;;;;;4993587;28;20172;-81
2021/11/12 23:59:57;;;;;;;18.73;12.52;;;;;;;;;;4993112;28;20206;-79
